createdAt,value
2022-11-13T00:00:13.239Z,13.66
2022-11-13T00:03:20.139Z,13.59
2022-11-13T00:06:07.787Z,13.53
2022-11-13T00:08:55.570Z,13.54
2022-11-13T00:11:43.507Z,13.56
2022-11-13T00:14:31.246Z,13.55
2022-11-13T00:17:18.768Z,13.51
2022-11-13T00:20:06.386Z,13.52
2022-11-13T00:22:53.746Z,13.57
2022-11-13T00:25:41.243Z,13.58
2022-11-13T00:28:28.580Z,13.57
2022-11-13T00:31:17.150Z,13.59
2022-11-13T00:34:41.492Z,13.60
2022-11-13T00:37:12.070Z,13.62
2022-11-13T00:39:59.947Z,13.62
2022-11-13T00:42:47.232Z,13.64
2022-11-13T00:45:34.727Z,13.63
2022-11-13T00:48:22.880Z,13.65
2022-11-13T00:51:10.195Z,13.64
2022-11-13T00:53:57.874Z,13.63
2022-11-13T00:56:45.338Z,13.61
2022-11-13T00:59:32.794Z,13.61
2022-11-13T01:02:20.107Z,13.62
2022-11-13T01:05:07.662Z,13.64
2022-11-13T01:07:55.156Z,13.67
2022-11-13T01:10:52.996Z,13.70
2022-11-13T01:13:42.525Z,13.70
2022-11-13T01:16:30.489Z,13.68
2022-11-13T01:19:18.051Z,13.66
2022-11-13T01:22:05.653Z,13.63
2022-11-13T01:24:53.752Z,13.61
2022-11-13T01:27:41.300Z,13.60
2022-11-13T01:30:28.950Z,13.62
2022-11-13T01:33:16.329Z,13.63
2022-11-13T01:36:07.515Z,13.66
2022-11-13T01:38:55.299Z,13.67
2022-11-13T01:41:42.722Z,13.65
2022-11-13T01:44:53.745Z,13.62
2022-11-13T01:47:41.165Z,13.65
2022-11-13T01:50:28.867Z,13.67
2022-11-13T01:53:17.074Z,13.65
2022-11-13T01:56:05.015Z,13.64
2022-11-13T01:59:02.269Z,13.67
2022-11-13T02:01:50.155Z,13.70
2022-11-13T02:04:37.813Z,13.72
2022-11-13T02:07:26.255Z,13.74
2022-11-13T02:10:14.040Z,13.75
2022-11-13T02:13:01.697Z,13.78
2022-11-13T02:15:50.894Z,13.78
2022-11-13T02:18:40.298Z,13.79
2022-11-13T10:14:46.827Z,15.68
2022-11-13T10:17:44.226Z,15.64
2022-11-13T10:20:46.249Z,15.60
2022-11-13T10:23:38.039Z,15.53
2022-11-13T10:26:28.914Z,15.40
2022-11-13T10:29:18.817Z,15.28
2022-11-13T10:32:26.970Z,15.20
2022-11-13T10:35:45.728Z,15.02
2022-11-13T10:38:44.665Z,14.86
2022-11-13T10:41:32.419Z,14.78
2022-11-13T10:44:29.989Z,14.79
2022-11-13T10:47:42.373Z,14.72
2022-11-13T10:50:29.948Z,14.61
2022-11-13T10:53:18.765Z,14.57
2022-11-13T10:56:21.843Z,14.58
2022-11-13T10:59:15.094Z,14.60
2022-11-13T11:02:23.170Z,14.61
2022-11-13T11:05:22.622Z,14.67
2022-11-13T11:08:11.153Z,14.68
2022-11-13T11:11:32.888Z,14.73
2022-11-13T11:14:26.767Z,14.78
2022-11-13T11:17:17.100Z,14.83
2022-11-13T11:20:16.756Z,14.86
2022-11-13T11:23:51.815Z,14.86
2022-11-13T11:26:49.626Z,14.85
2022-11-13T11:29:49.925Z,14.82
2022-11-13T11:32:45.308Z,14.76
2022-11-13T11:36:07.787Z,14.72
2022-11-13T11:38:57.952Z,14.68
2022-11-13T11:41:55.207Z,14.67
2022-11-13T11:44:57.648Z,14.64
2022-11-13T11:47:44.811Z,14.61
2022-11-13T11:50:35.093Z,14.60
2022-11-13T11:53:34.090Z,14.58
2022-11-13T11:56:26.742Z,14.56
2022-11-13T11:59:31.499Z,14.56
2022-11-13T12:02:38.556Z,14.53
2022-11-13T12:05:40.699Z,14.52
2022-11-13T12:08:33.870Z,14.51
2022-11-13T12:11:23.840Z,14.51
2022-11-13T12:14:30.041Z,14.51
2022-11-13T12:17:42.148Z,14.49
2022-11-13T12:20:37.904Z,14.49
2022-11-13T12:23:27.946Z,14.48
2022-11-13T12:26:36.192Z,14.48
2022-11-13T12:29:25.928Z,14.47
2022-11-13T12:32:53.427Z,14.46
2022-11-13T12:35:40.893Z,14.44
2022-11-13T12:38:36.495Z,14.44
2022-11-13T12:41:33.411Z,14.44
2022-11-13T12:44:27.678Z,14.44
2022-11-13T12:47:15.341Z,14.45
2022-11-13T12:50:07.542Z,14.45
2022-11-13T12:53:06.455Z,14.42
2022-11-13T12:56:00.516Z,14.38
2022-11-13T12:59:15.364Z,14.35
2022-11-13T13:02:09.294Z,14.33
2022-11-13T13:04:59.148Z,14.33
2022-11-13T13:08:09.935Z,14.33
2022-11-13T13:11:06.740Z,14.20
2022-11-13T13:14:12.011Z,13.99
2022-11-13T13:17:14.219Z,14.00
2022-11-13T13:20:07.243Z,14.09
2022-11-13T13:22:59.610Z,14.13
2022-11-13T13:25:46.769Z,14.14
2022-11-13T13:28:38.529Z,14.16
2022-11-13T13:31:49.704Z,14.17
2022-11-13T13:34:54.779Z,14.19
2022-11-13T13:38:00.133Z,14.15
2022-11-13T13:41:31.641Z,14.01
2022-11-13T13:44:26.248Z,13.95
2022-11-13T13:47:40.722Z,13.97
2022-11-13T13:50:32.709Z,13.97
2022-11-13T13:53:23.599Z,13.98
2022-11-13T13:56:12.884Z,13.98
2022-11-13T13:59:01.672Z,13.98
2022-11-13T14:02:00.221Z,13.95
2022-11-13T14:04:53.295Z,13.97
2022-11-13T14:07:46.021Z,13.92
2022-11-13T14:10:36.022Z,13.85
2022-11-13T14:13:27.717Z,13.78
2022-11-13T14:16:15.455Z,13.74
2022-11-13T14:19:04.960Z,13.76
2022-11-13T14:21:59.283Z,13.79
2022-11-13T14:24:55.024Z,13.82
2022-11-13T14:27:42.208Z,13.86
2022-11-13T14:30:31.296Z,13.87
2022-11-13T14:33:25.003Z,13.88
2022-11-13T14:36:14.071Z,13.88
2022-11-13T14:39:01.291Z,13.87
2022-11-13T14:41:59.930Z,13.86
2022-11-13T14:44:46.806Z,13.84
2022-11-13T14:47:37.789Z,13.82
2022-11-13T14:50:27.274Z,13.80
2022-11-13T14:53:13.946Z,13.76
2022-11-13T14:56:09.118Z,13.75
2022-11-13T14:59:25.406Z,13.75
2022-11-13T15:02:13.158Z,13.74
2022-11-13T15:05:00.230Z,13.74
2022-11-13T15:07:47.172Z,13.73
2022-11-13T15:10:34.703Z,13.72
2022-11-13T15:13:22.078Z,13.71
2022-11-13T15:16:16.003Z,13.69
2022-11-13T15:19:16.962Z,13.66
2022-11-13T15:22:33.611Z,13.65
2022-11-13T15:25:19.630Z,13.65
2022-11-13T15:28:06.834Z,13.66
2022-11-13T15:30:54.184Z,13.67
2022-11-13T15:33:41.212Z,13.68
2022-11-13T15:36:28.350Z,13.69
2022-11-13T15:39:23.364Z,13.69
2022-11-13T15:42:17.645Z,13.68
2022-11-13T15:45:08.775Z,13.67
2022-11-13T15:47:55.693Z,13.66
2022-11-13T15:50:42.788Z,13.64
2022-11-13T15:53:30.242Z,13.62
2022-11-13T15:56:18.747Z,13.61
2022-11-13T15:59:05.926Z,13.61
2022-11-13T16:01:57.969Z,13.61
2022-11-13T16:04:56.159Z,13.61
2022-11-13T16:07:44.299Z,13.61
2022-11-13T16:10:31.233Z,13.60
2022-11-13T16:13:18.180Z,13.59
2022-11-13T16:16:05.833Z,13.57
2022-11-13T16:18:58.836Z,13.53
2022-11-13T16:21:47.387Z,13.50
2022-11-13T16:24:34.336Z,13.47
2022-11-13T16:27:34.035Z,13.45
2022-11-13T16:30:23.425Z,13.45
2022-11-13T16:33:11.364Z,13.44
2022-11-13T16:35:58.666Z,13.43
2022-11-13T16:38:46.641Z,13.42
2022-11-13T16:41:33.824Z,13.41
2022-11-13T16:44:21.119Z,13.39
2022-11-13T16:47:26.009Z,13.37
2022-11-13T16:50:33.552Z,13.36
2022-11-13T16:53:20.565Z,13.36
2022-11-13T16:56:18.026Z,13.36
2022-11-13T16:59:05.128Z,13.36
2022-11-13T17:01:55.754Z,13.30
2022-11-13T17:04:44.351Z,13.27
2022-11-13T17:07:31.462Z,13.26
2022-11-13T17:10:36.315Z,13.25
2022-11-13T17:13:23.857Z,13.23
2022-11-13T17:16:13.843Z,13.23
2022-11-13T17:19:00.822Z,13.22
2022-11-13T17:21:47.724Z,13.22
2022-11-13T17:24:34.660Z,13.21
2022-11-13T17:27:22.735Z,13.21
2022-11-13T17:30:12.581Z,13.20
2022-11-13T17:32:59.749Z,13.18
2022-11-13T17:35:53.585Z,13.16
2022-11-13T17:38:40.758Z,13.15
2022-11-13T17:41:28.069Z,13.13
2022-11-13T17:44:15.273Z,13.13
2022-11-13T17:47:02.401Z,13.11
2022-11-13T17:49:50.035Z,13.10
2022-11-13T17:52:37.168Z,13.10
2022-11-13T17:55:25.170Z,13.08
2022-11-13T17:58:12.509Z,13.06
2022-11-13T18:01:07.616Z,13.01
2022-11-13T18:03:58.309Z,12.98
2022-11-13T18:06:45.347Z,12.98
2022-11-13T18:09:35.165Z,12.98
2022-11-13T18:12:22.652Z,12.99
2022-11-13T18:15:10.080Z,13.00
2022-11-13T18:17:58.095Z,13.00
2022-11-13T18:20:44.731Z,13.00
2022-11-13T18:23:32.023Z,13.00
2022-11-13T18:26:19.626Z,12.98
2022-11-13T18:29:07.382Z,12.96
2022-11-13T18:31:54.283Z,12.96
2022-11-13T18:34:41.305Z,12.96
2022-11-13T18:37:28.018Z,12.97
2022-11-13T18:40:15.700Z,12.96
2022-11-13T18:43:02.758Z,12.95
2022-11-13T18:46:06.698Z,12.95
2022-11-13T18:48:55.657Z,12.95
2022-11-13T18:51:43.376Z,12.93
2022-11-13T18:54:30.601Z,12.92
2022-11-13T18:57:17.808Z,12.91
2022-11-13T19:00:05.209Z,12.92
2022-11-13T19:02:52.059Z,12.93
2022-11-13T19:05:43.494Z,12.94
2022-11-13T19:08:31.789Z,12.95
2022-11-13T19:11:19.634Z,12.92
2022-11-13T19:14:08.002Z,12.90
2022-11-13T19:16:54.812Z,12.90
2022-11-13T19:19:42.459Z,12.90
2022-11-13T19:22:29.272Z,12.90
2022-11-13T19:25:16.608Z,12.91
2022-11-13T19:28:03.695Z,12.91
2022-11-13T19:30:54.683Z,12.90
2022-11-13T19:33:42.422Z,12.87
2022-11-13T19:36:32.114Z,12.81
2022-11-13T19:39:20.282Z,12.81
2022-11-13T19:42:07.900Z,12.81
2022-11-13T19:44:55.279Z,12.82
2022-11-13T19:47:42.518Z,12.81
2022-11-13T19:50:29.814Z,12.79
2022-11-13T19:53:16.832Z,12.80
2022-11-13T19:56:05.318Z,12.73
2022-11-13T19:58:56.192Z,12.60
2022-11-13T20:01:43.714Z,12.58
2022-11-13T20:04:31.475Z,12.54
2022-11-13T20:07:18.155Z,12.53
2022-11-13T20:10:05.829Z,12.55
2022-11-13T20:12:52.825Z,12.53
2022-11-13T20:15:40.245Z,12.51
2022-11-13T20:18:28.054Z,12.49
2022-11-13T20:21:23.621Z,12.46
2022-11-13T20:24:11.443Z,12.48
2022-11-13T20:26:58.593Z,12.44
2022-11-13T20:29:45.640Z,12.44
2022-11-13T20:32:38.022Z,12.48
2022-11-13T20:35:24.746Z,12.51
2022-11-13T20:38:12.450Z,12.52
2022-11-13T20:41:04.828Z,12.50
2022-11-13T20:43:55.934Z,12.49
2022-11-13T20:46:43.122Z,12.44
2022-11-13T20:49:30.855Z,12.41
2022-11-13T20:52:17.876Z,12.38
2022-11-13T20:55:05.613Z,12.39
2022-11-13T20:57:53.068Z,12.42
2022-11-13T21:00:40.148Z,12.43
2022-11-13T21:03:27.587Z,12.43
2022-11-13T21:06:18.170Z,12.36
2022-11-13T21:09:05.723Z,12.34
2022-11-13T21:11:52.661Z,12.34
2022-11-13T21:14:39.786Z,12.30
2022-11-13T21:17:27.352Z,12.26
2022-11-13T21:20:14.351Z,12.21
2022-11-13T21:23:02.002Z,12.18
2022-11-13T21:25:58.592Z,12.14
2022-11-13T21:28:48.728Z,12.14
2022-11-13T21:31:36.095Z,12.14
2022-11-13T21:34:23.476Z,12.08
2022-11-13T21:37:12.450Z,12.01
2022-11-13T21:39:59.445Z,11.93
2022-11-13T21:42:46.832Z,11.84
2022-11-13T21:45:34.305Z,11.82
2022-11-13T21:48:21.429Z,11.82
2022-11-13T21:51:09.453Z,11.78
2022-11-13T21:53:56.806Z,11.73
2022-11-13T21:56:43.943Z,11.68
2022-11-13T21:59:31.657Z,11.62
2022-11-13T22:02:18.589Z,11.59
2022-11-13T22:05:06.191Z,11.57
2022-11-13T22:07:53.523Z,11.56
2022-11-13T22:10:40.668Z,11.54
2022-11-13T22:13:27.856Z,11.55
2022-11-13T22:16:14.869Z,11.54
2022-11-13T22:19:04.612Z,11.54
2022-11-13T22:21:51.546Z,11.52
2022-11-13T22:24:38.709Z,11.51
2022-11-13T22:27:25.731Z,11.52
2022-11-13T22:30:12.873Z,11.54
2022-11-13T22:33:00.237Z,11.59
2022-11-13T22:35:47.461Z,11.60
2022-11-13T22:38:35.465Z,11.57
2022-11-13T22:41:27.743Z,11.54
2022-11-13T22:44:14.574Z,11.49
2022-11-13T22:47:01.943Z,11.47
2022-11-13T22:49:48.542Z,11.44
2022-11-13T22:52:35.846Z,11.41
2022-11-13T22:55:22.977Z,11.39
2022-11-13T22:58:10.007Z,11.40
2022-11-13T23:01:04.509Z,11.38
2022-11-13T23:03:53.163Z,11.35
2022-11-13T23:06:40.201Z,11.37
2022-11-13T23:09:29.996Z,11.41
2022-11-13T23:12:16.944Z,11.41
2022-11-13T23:15:04.306Z,11.40
2022-11-13T23:17:51.012Z,11.35
2022-11-13T23:20:42.723Z,11.29
2022-11-13T23:23:30.440Z,11.29
2022-11-13T23:26:18.311Z,11.31
2022-11-13T23:29:05.509Z,11.35
2022-11-13T23:31:52.842Z,11.36
2022-11-13T23:34:58.669Z,11.37
2022-11-13T23:37:47.777Z,11.35
2022-11-13T23:40:35.649Z,11.33
2022-11-13T23:43:36.504Z,11.33
2022-11-13T23:46:31.082Z,11.34
2022-11-13T23:49:18.166Z,11.30
2022-11-13T23:52:05.387Z,11.29
2022-11-13T23:54:52.743Z,11.30
2022-11-13T23:57:39.925Z,11.29
